createdAt,value
2022-10-28T00:17:20.375Z,5.03
2022-10-28T00:20:11.963Z,5.07
2022-10-28T00:22:43.034Z,5.45
2022-10-28T00:25:14.214Z,5.38
2022-10-28T00:28:08.356Z,4.43
2022-10-28T00:31:04.435Z,5.18
2022-10-28T00:34:04.191Z,5.20
2022-10-28T00:48:05.076Z,5.18
2022-10-28T00:50:53.343Z,5.15
2022-10-28T00:53:49.535Z,4.78
2022-10-28T00:56:45.281Z,4.50
2022-10-28T00:59:42.446Z,5.07
2022-10-28T01:02:44.159Z,4.35
2022-10-28T01:05:39.951Z,4.70
2022-10-28T01:08:11.956Z,4.65
2022-10-28T01:11:29.785Z,4.82
2022-10-28T01:14:46.579Z,4.50
2022-10-28T01:18:13.168Z,3.78
2022-10-28T01:20:59.291Z,4.43
2022-10-28T01:23:47.818Z,4.95
2022-10-28T01:26:27.209Z,5.07
2022-10-28T01:29:46.603Z,4.97
2022-10-28T01:32:29.504Z,5.18
2022-10-28T01:56:10.307Z,4.90
2022-10-28T01:58:41.863Z,4.95
2022-10-28T02:01:36.479Z,4.97
2022-10-28T02:35:40.265Z,5.07
2022-10-28T02:38:36.545Z,4.85
2022-10-28T02:41:15.686Z,5.30
2022-10-28T02:43:47.804Z,5.28
2022-10-28T02:46:21.124Z,4.60
2022-10-28T02:49:15.591Z,5.28
2022-10-28T02:52:30.729Z,5.30
2022-10-28T02:55:25.827Z,5.90
2022-10-28T03:25:35.398Z,6.07
2022-10-28T03:28:06.537Z,6.80
2022-10-28T03:31:04.123Z,6.78
2022-10-28T03:33:35.290Z,6.57
2022-10-28T03:36:35.470Z,6.03
2022-10-28T03:39:54.602Z,5.60
2022-10-28T03:42:45.736Z,5.93
2022-10-28T03:45:36.611Z,5.32
2022-10-28T03:48:33.333Z,5.85
2022-10-28T03:51:43.734Z,6.07
2022-10-28T03:54:14.620Z,6.30
2022-10-28T03:57:06.202Z,6.20
2022-10-28T03:59:37.864Z,5.97
2022-10-28T04:02:10.037Z,6.00
2022-10-28T05:00:02.536Z,7.05
2022-10-28T05:02:33.865Z,6.95
2022-10-28T05:05:05.792Z,5.95
2022-10-28T05:07:56.934Z,6.47
2022-10-28T05:10:51.464Z,6.30
2022-10-28T05:13:22.796Z,6.63
2022-10-28T05:16:13.718Z,6.43
2022-10-28T05:21:43.441Z,5.40
2022-10-28T05:24:37.353Z,6.50
2022-10-28T05:27:08.506Z,5.68
2022-10-28T05:29:39.313Z,6.20
2022-10-28T05:32:34.070Z,6.60
2022-10-28T05:35:28.621Z,6.78
2022-10-28T05:38:20.815Z,6.57
2022-10-28T07:03:20.682Z,6.60
2022-10-28T07:05:52.762Z,5.53
2022-10-28T07:08:49.256Z,6.30
2022-10-28T07:11:46.438Z,6.45
2022-10-28T07:14:51.177Z,6.45
2022-10-28T07:17:42.209Z,6.35
2022-10-28T07:20:36.882Z,6.60
2022-10-28T07:23:28.867Z,6.43
2022-10-28T07:51:09.892Z,5.80
2022-10-28T07:54:04.521Z,6.85
2022-10-28T07:56:36.196Z,6.80
2022-10-28T07:59:08.118Z,6.70
2022-10-28T08:02:02.235Z,6.70
2022-10-28T08:04:53.758Z,5.78
2022-10-28T08:07:24.750Z,5.95
2022-10-28T08:09:56.282Z,6.70
2022-10-28T08:12:28.880Z,6.32
2022-10-28T08:15:22.602Z,6.45
2022-10-28T08:18:16.285Z,6.45
2022-10-28T08:21:13.883Z,6.30
2022-10-28T08:23:48.148Z,6.78
2022-10-28T08:26:42.465Z,6.00
2022-10-28T08:29:14.366Z,7.07
2022-10-28T08:32:11.714Z,6.90
2022-10-28T08:35:02.696Z,6.57
2022-10-28T08:37:55.323Z,6.70
2022-10-28T08:40:39.883Z,6.57
2022-10-28T08:52:36.705Z,5.88
2022-10-28T08:55:47.309Z,6.50
2022-10-28T09:22:12.012Z,6.70
2022-10-28T09:25:40.667Z,6.68
2022-10-28T09:28:49.900Z,6.15
2022-10-28T09:31:51.983Z,7.20
2022-10-28T09:34:42.810Z,7.00
2022-10-28T09:37:38.751Z,7.90
2022-10-28T09:40:32.878Z,7.80
2022-10-28T09:43:35.311Z,7.97
2022-10-28T09:46:33.264Z,22.75
2022-10-28T09:49:39.408Z,10.43
2022-10-28T09:52:15.210Z,8.73
2022-10-28T09:55:20.593Z,9.85
2022-10-28T09:57:53.173Z,9.68
2022-10-28T10:00:45.501Z,8.95
2022-10-28T10:03:37.569Z,10.52
2022-10-28T10:21:45.026Z,8.55
2022-10-28T10:24:38.937Z,9.00
2022-10-28T10:27:12.720Z,9.00
2022-10-28T10:30:04.055Z,8.95
2022-10-28T10:32:35.474Z,8.05
2022-10-28T10:35:30.797Z,8.45
2022-10-28T10:41:45.713Z,8.55
2022-10-28T10:44:25.545Z,7.82
2022-10-28T10:47:20.171Z,8.57
2022-10-28T10:49:53.396Z,8.77
2022-10-28T10:52:59.447Z,8.05
2022-10-28T10:55:43.477Z,8.15
2022-10-28T10:59:05.911Z,9.85
2022-10-28T11:02:02.056Z,11.55
2022-10-28T11:04:38.054Z,10.43
2022-10-28T11:07:16.555Z,9.07
2022-10-28T11:09:52.988Z,9.65
2022-10-28T11:12:32.035Z,9.18
2022-10-28T11:15:29.495Z,8.65
2022-10-28T11:18:23.501Z,8.63
2022-10-28T11:21:09.063Z,9.05
2022-10-28T11:24:26.600Z,8.77
2022-10-28T11:27:50.058Z,8.10
2022-10-28T11:30:47.369Z,9.60
2022-10-28T11:56:50.864Z,7.90
2022-10-28T12:00:22.885Z,8.35
2022-10-28T12:03:05.577Z,8.57
2022-10-28T12:06:02.326Z,8.32
2022-10-28T12:09:13.099Z,8.32
2022-10-28T12:12:04.890Z,7.70
2022-10-28T12:15:12.358Z,8.63
2022-10-28T12:18:10.203Z,8.07
2022-10-28T12:21:20.078Z,8.48
2022-10-28T12:24:21.852Z,7.95
2022-10-28T12:26:59.578Z,8.38
2022-10-28T12:29:42.533Z,7.97
2022-10-28T12:32:23.125Z,7.97
2022-10-28T12:35:39.652Z,7.72
2022-10-28T12:53:06.764Z,7.82
2022-10-28T12:55:51.847Z,8.55
2022-10-28T12:59:01.455Z,8.27
2022-10-28T13:38:29.349Z,7.28
2022-10-28T13:50:15.308Z,7.80
2022-10-28T13:53:26.926Z,6.80
2022-10-28T13:56:48.012Z,7.32
2022-10-28T14:00:22.540Z,7.30
2022-10-28T14:03:33.349Z,7.20
2022-10-28T14:06:37.282Z,7.82
2022-10-28T14:20:42.032Z,7.78
2022-10-28T14:23:32.548Z,7.65
2022-10-28T14:39:47.383Z,7.20
2022-10-28T14:46:25.781Z,6.70
2022-10-28T14:51:44.606Z,7.95
2022-10-28T14:54:34.255Z,8.00
2022-10-28T14:57:09.450Z,7.35
2022-10-28T15:00:07.194Z,7.55
2022-10-28T15:02:57.166Z,7.70
2022-10-28T15:05:33.919Z,7.38
2022-10-28T15:08:27.954Z,7.18
2022-10-28T15:10:59.353Z,7.50
2022-10-28T15:13:30.892Z,7.63
2022-10-28T15:16:03.872Z,7.25
2022-10-28T15:18:57.063Z,8.30
2022-10-28T15:22:58.153Z,7.38
2022-10-28T15:26:12.421Z,7.57
2022-10-28T15:29:03.960Z,7.60
2022-10-28T15:31:36.724Z,7.18
2022-10-28T15:34:32.831Z,7.63
2022-10-28T16:13:44.473Z,7.68
2022-10-28T16:40:09.222Z,7.72
2022-10-28T17:05:37.273Z,7.75
2022-10-28T17:08:10.019Z,8.10
2022-10-28T17:10:42.739Z,7.80
2022-10-28T17:30:42.535Z,7.22
2022-10-28T17:33:40.556Z,7.45
2022-10-28T17:36:12.870Z,8.18
2022-10-28T17:53:25.148Z,7.78
2022-10-28T17:56:16.041Z,8.57
2022-10-28T17:58:46.962Z,8.52
2022-10-28T18:01:38.479Z,8.13
2022-10-28T18:04:14.662Z,8.77
2022-10-28T18:06:45.756Z,9.23
2022-10-28T18:09:56.408Z,8.43
2022-10-28T18:12:27.196Z,9.07
2022-10-28T18:14:57.935Z,7.80
2022-10-28T18:17:57.039Z,8.80
2022-10-28T18:20:59.410Z,8.75
2022-10-28T18:23:31.386Z,9.02
2022-10-28T18:26:04.090Z,9.05
2022-10-28T18:32:13.701Z,8.48
2022-10-28T18:51:42.427Z,8.95
2022-10-28T18:54:42.118Z,8.75
2022-10-28T18:57:33.107Z,8.90
2022-10-28T19:00:19.766Z,9.20
2022-10-28T19:03:24.970Z,8.70
2022-10-28T19:05:56.843Z,9.32
2022-10-28T19:09:02.095Z,9.77
2022-10-28T19:11:53.857Z,8.48
2022-10-28T20:00:32.601Z,9.07
2022-10-28T20:03:23.672Z,9.68
2022-10-28T20:06:04.137Z,8.75
2022-10-28T20:08:57.519Z,8.85
2022-10-28T20:11:57.548Z,8.77
2022-10-28T20:14:55.130Z,8.80
2022-10-28T20:17:28.824Z,9.30
2022-10-28T20:37:19.452Z,9.35
2022-10-28T20:40:13.541Z,9.18
2022-10-28T20:43:07.210Z,9.73
2022-10-28T20:46:05.143Z,8.95
2022-10-28T20:48:59.162Z,10.05
2022-10-28T20:51:32.227Z,9.30
2022-10-28T20:54:26.083Z,9.75
2022-10-28T21:00:10.220Z,10.07
2022-10-28T21:02:42.677Z,10.05
2022-10-28T21:05:14.435Z,9.63
2022-10-28T21:08:09.075Z,9.80
2022-10-28T21:10:42.457Z,9.15
2022-10-28T21:13:40.003Z,10.32
2022-10-28T21:16:34.486Z,9.40
2022-10-28T21:19:05.615Z,9.88
2022-10-28T21:28:06.617Z,10.00
2022-10-28T23:15:00.920Z,9.93
2022-10-28T23:17:53.847Z,9.35
2022-10-28T23:20:28.029Z,9.70
2022-10-28T23:28:46.702Z,9.60
2022-10-28T23:31:37.538Z,9.98
2022-10-28T23:34:29.723Z,10.63
2022-10-28T23:37:20.903Z,10.23
2022-10-28T23:40:26.987Z,10.00
2022-10-28T23:42:58.347Z,10.23
2022-10-28T23:45:56.020Z,9.23
2022-10-28T23:48:28.332Z,10.25
2022-10-28T23:50:59.666Z,10.50
2022-10-28T23:54:11.086Z,10.07
2022-10-28T23:56:43.196Z,10.88
